createdAt,value
2022-10-19T00:01:20.116Z,80.18
2022-10-19T00:03:50.869Z,80.21
2022-10-19T00:06:39.066Z,80.14
2022-10-19T00:09:10.342Z,80.15
2022-10-19T00:11:42.095Z,80.49
2022-10-19T00:14:17.745Z,80.75
2022-10-19T00:16:48.556Z,81.32
2022-10-19T00:19:23.513Z,81.19
2022-10-19T00:21:52.104Z,81.32
2022-10-19T00:24:20.816Z,81.28
2022-10-19T00:26:48.759Z,81.24
2022-10-19T00:29:17.505Z,80.92
2022-10-19T00:31:45.506Z,80.60
2022-10-19T00:34:13.571Z,80.55
2022-10-19T00:36:41.950Z,80.54
2022-10-19T00:39:15.893Z,80.60
2022-10-19T00:41:46.102Z,80.88
2022-10-19T00:44:14.047Z,81.09
2022-10-19T00:46:48.984Z,81.48
2022-10-19T00:49:24.926Z,81.65
2022-10-19T00:52:06.291Z,81.85
2022-10-19T00:54:37.460Z,81.99
2022-10-19T00:57:07.984Z,82.12
2022-10-19T00:59:37.080Z,82.22
2022-10-19T01:02:06.995Z,82.08
2022-10-19T01:04:37.931Z,82.63
2022-10-19T01:07:08.329Z,83.15
2022-10-19T01:09:36.322Z,83.81
2022-10-19T01:12:09.514Z,84.06
2022-10-19T01:15:20.389Z,84.25
2022-10-19T01:17:54.297Z,84.14
2022-10-19T01:20:46.977Z,84.03
2022-10-19T01:23:37.029Z,84.18
2022-10-19T01:26:27.118Z,84.60
2022-10-19T01:29:29.262Z,84.82
2022-10-19T01:32:11.638Z,84.69
2022-10-19T01:34:51.230Z,84.25
2022-10-19T01:37:39.269Z,84.51
2022-10-19T01:40:10.413Z,84.01
2022-10-19T01:45:33.792Z,83.42
2022-10-19T01:48:10.402Z,83.18
2022-10-19T01:50:49.130Z,83.15
2022-10-19T01:53:19.588Z,83.26
2022-10-19T01:55:51.781Z,83.07
2022-10-19T01:58:26.736Z,83.19
2022-10-19T02:00:58.747Z,82.80
2022-10-19T02:03:27.774Z,82.83
2022-10-19T02:05:56.962Z,82.77
2022-10-19T02:08:30.664Z,82.76
2022-10-19T02:11:00.278Z,82.81
2022-10-19T02:13:29.774Z,83.06
2022-10-19T02:16:00.928Z,82.95
2022-10-19T02:18:33.292Z,82.89
2022-10-19T02:21:06.246Z,82.84
2022-10-19T02:23:34.652Z,83.00
2022-10-19T02:26:03.746Z,83.14
2022-10-19T02:28:32.131Z,83.30
2022-10-19T02:31:01.216Z,83.40
2022-10-19T02:33:30.007Z,83.78
2022-10-19T02:35:59.071Z,83.55
2022-10-19T02:38:28.411Z,83.73
2022-10-19T02:41:17.163Z,83.77
2022-10-19T02:43:50.038Z,83.59
2022-10-19T02:46:25.791Z,83.66
2022-10-19T02:48:55.497Z,83.68
2022-10-19T02:51:36.597Z,83.78
2022-10-19T02:54:06.998Z,83.60
2022-10-19T02:56:35.627Z,83.27
2022-10-19T02:59:03.753Z,83.33
2022-10-19T03:01:31.856Z,83.25
2022-10-19T03:03:59.798Z,83.34
2022-10-19T03:06:27.779Z,83.26
2022-10-19T03:08:55.830Z,83.06
2022-10-19T03:11:23.797Z,83.04
2022-10-19T03:13:51.766Z,83.32
2022-10-19T03:16:19.837Z,83.12
2022-10-19T03:18:51.324Z,83.04
2022-10-19T03:21:20.043Z,83.22
2022-10-19T03:23:47.937Z,83.31
2022-10-19T03:26:17.662Z,83.15
2022-10-19T03:28:46.014Z,83.22
2022-10-19T03:31:14.149Z,83.36
2022-10-19T03:33:42.213Z,83.60
2022-10-19T03:36:19.759Z,83.87
2022-10-19T03:39:00.631Z,84.20
2022-10-19T03:41:31.310Z,84.30
2022-10-19T03:46:32.346Z,84.62
2022-10-19T03:49:00.392Z,84.87
2022-10-19T03:51:30.920Z,85.19
2022-10-19T03:54:07.489Z,85.65
2022-10-19T03:56:36.477Z,85.89
2022-10-19T03:59:06.700Z,86.14
2022-10-19T04:01:41.037Z,86.59
2022-10-19T04:04:15.910Z,86.87
2022-10-19T04:06:47.070Z,87.22
2022-10-19T04:09:18.949Z,87.43
2022-10-19T04:11:47.221Z,87.80
2022-10-19T04:14:26.792Z,88.15
2022-10-19T04:17:04.265Z,88.25
2022-10-19T04:19:32.424Z,88.12
2022-10-19T04:22:00.495Z,88.29
2022-10-19T04:24:29.074Z,88.33
2022-10-19T04:26:57.353Z,88.18
2022-10-19T04:29:29.696Z,88.30
2022-10-19T04:31:59.632Z,88.47
2022-10-19T04:34:27.914Z,88.79
2022-10-19T04:36:55.881Z,88.81
2022-10-19T04:39:23.858Z,89.14
2022-10-19T04:41:51.921Z,89.26
2022-10-19T04:44:19.940Z,88.46
2022-10-19T04:46:48.069Z,86.88
2022-10-19T04:49:19.395Z,85.42
2022-10-19T04:51:48.400Z,84.50
2022-10-19T04:54:16.376Z,84.39
2022-10-19T04:56:44.445Z,84.02
2022-10-19T04:59:12.516Z,84.23
2022-10-19T05:01:46.443Z,84.21
2022-10-19T05:04:15.516Z,84.52
2022-10-19T05:06:43.416Z,84.86
2022-10-19T05:09:11.638Z,85.25
2022-10-19T05:11:39.623Z,85.72
2022-10-19T05:14:07.715Z,86.21
2022-10-19T05:16:35.984Z,86.73
2022-10-19T05:19:04.139Z,86.96
2022-10-19T05:21:32.225Z,86.88
2022-10-19T05:24:00.424Z,86.68
2022-10-19T05:26:29.246Z,85.73
2022-10-19T05:29:02.012Z,85.26
2022-10-19T05:31:33.005Z,84.97
2022-10-19T05:34:01.438Z,84.65
2022-10-19T05:36:38.400Z,84.45
2022-10-19T05:39:13.895Z,83.66
2022-10-19T05:41:46.371Z,82.84
2022-10-19T05:44:20.290Z,82.36
2022-10-19T05:46:49.137Z,81.73
2022-10-19T05:49:19.796Z,80.93
2022-10-19T05:51:48.317Z,80.37
2022-10-19T05:54:16.752Z,79.91
2022-10-19T05:56:44.827Z,79.88
2022-10-19T05:59:16.378Z,79.67
2022-10-19T06:01:45.442Z,79.80
2022-10-19T06:04:15.098Z,79.70
2022-10-19T06:06:43.358Z,79.47
2022-10-19T06:09:11.920Z,79.21
2022-10-19T06:11:41.852Z,78.37
2022-10-19T06:14:15.033Z,77.34
2022-10-19T06:16:46.088Z,76.83
2022-10-19T06:19:14.461Z,76.72
2022-10-19T06:21:45.987Z,76.53
2022-10-19T06:24:14.391Z,75.49
2022-10-19T06:26:42.870Z,75.57
2022-10-19T06:29:11.268Z,75.01
2022-10-19T06:31:39.314Z,74.32
2022-10-19T06:34:07.830Z,73.20
2022-10-19T06:36:35.868Z,72.35
2022-10-19T06:39:05.240Z,72.58
2022-10-19T06:41:34.815Z,72.30
2022-10-19T06:44:17.083Z,70.70
2022-10-19T06:46:45.250Z,68.69
2022-10-19T06:49:14.553Z,69.09
2022-10-19T06:51:42.887Z,67.72
2022-10-19T06:54:10.794Z,67.79
2022-10-19T06:56:38.918Z,66.96
2022-10-19T06:59:06.936Z,66.53
2022-10-19T07:01:34.906Z,65.06
2022-10-19T07:04:03.282Z,64.40
2022-10-19T07:06:31.268Z,64.42
2022-10-19T07:08:59.523Z,64.89
2022-10-19T07:11:27.389Z,65.04
2022-10-19T07:13:55.537Z,65.21
2022-10-19T07:16:23.840Z,65.77
2022-10-19T07:18:53.553Z,66.31
2022-10-19T07:21:23.243Z,66.54
2022-10-19T07:23:51.556Z,64.75
2022-10-19T07:26:23.605Z,64.06
2022-10-19T07:28:51.663Z,61.45
2022-10-19T07:31:22.734Z,60.86
2022-10-19T07:33:59.479Z,61.05
2022-10-19T07:36:29.285Z,61.22
2022-10-19T07:38:57.870Z,60.45
2022-10-19T07:41:26.646Z,60.29
2022-10-19T07:43:55.242Z,60.20
2022-10-19T07:46:26.536Z,60.72
2022-10-19T07:48:55.068Z,60.46
2022-10-19T07:51:23.598Z,60.04
2022-10-19T07:53:51.619Z,60.23
2022-10-19T07:56:24.196Z,59.97
2022-10-19T07:58:54.728Z,59.91
2022-10-19T08:01:31.433Z,59.58
2022-10-19T08:06:49.654Z,59.08
2022-10-19T08:09:39.993Z,58.52
2022-10-19T08:12:06.238Z,58.21
2022-10-19T08:14:34.448Z,58.73
2022-10-19T08:17:02.969Z,59.27
2022-10-19T08:19:31.208Z,58.51
2022-10-19T08:21:59.375Z,58.41
2022-10-19T08:24:27.652Z,56.98
2022-10-19T08:26:55.789Z,56.63
2022-10-19T08:29:25.564Z,56.85
2022-10-19T08:31:55.860Z,57.04
2022-10-19T08:34:23.751Z,57.46
2022-10-19T08:36:51.719Z,58.26
2022-10-19T08:39:19.661Z,58.77
2022-10-19T08:42:02.500Z,58.76
2022-10-19T08:45:01.168Z,59.29
2022-10-19T08:47:44.644Z,59.75
2022-10-19T08:50:25.673Z,62.14
2022-10-19T08:53:03.522Z,64.04
2022-10-19T08:55:39.741Z,65.69
2022-10-19T08:58:35.144Z,66.94
2022-10-19T09:01:17.110Z,67.37
2022-10-19T09:03:56.149Z,68.30
2022-10-19T09:06:29.572Z,68.67
2022-10-19T09:08:58.711Z,69.00
2022-10-19T09:11:32.955Z,68.31
2022-10-19T09:14:25.760Z,67.26
2022-10-19T09:17:00.862Z,65.56
2022-10-19T09:19:31.900Z,65.45
2022-10-19T09:22:06.218Z,64.58
2022-10-19T09:24:54.774Z,66.88
2022-10-19T09:27:25.528Z,68.96
2022-10-19T09:29:58.973Z,69.68
2022-10-19T09:32:29.624Z,70.37
2022-10-19T09:35:02.608Z,71.28
2022-10-19T09:37:32.819Z,72.01
2022-10-19T09:40:01.004Z,72.54
2022-10-19T09:42:34.721Z,72.47
2022-10-19T09:45:35.086Z,73.17
2022-10-19T09:48:14.246Z,71.66
2022-10-19T09:50:44.771Z,71.22
2022-10-19T09:53:21.115Z,70.97
2022-10-19T09:56:01.037Z,70.68
2022-10-19T09:58:32.991Z,70.70
2022-10-19T10:01:03.288Z,71.09
2022-10-19T10:03:43.709Z,71.52
2022-10-19T10:06:17.380Z,71.28
2022-10-19T10:08:50.994Z,72.10
2022-10-19T10:11:27.392Z,72.13
2022-10-19T10:13:57.125Z,71.83
2022-10-19T10:16:30.563Z,72.35
2022-10-19T10:19:01.990Z,72.51
2022-10-19T10:21:34.925Z,72.10
2022-10-19T10:24:11.835Z,70.60
2022-10-19T10:26:45.476Z,69.91
2022-10-19T10:29:25.331Z,69.05
2022-10-19T10:32:03.694Z,68.45
2022-10-19T10:34:49.299Z,67.79
2022-10-19T10:37:42.074Z,66.58
2022-10-19T10:40:26.787Z,66.09
2022-10-19T10:42:58.709Z,65.21
2022-10-19T10:45:31.600Z,64.10
2022-10-19T10:48:17.927Z,63.42
2022-10-19T10:50:46.351Z,62.23
2022-10-19T10:53:36.087Z,62.23
2022-10-19T10:56:06.469Z,62.43
2022-10-19T10:58:48.398Z,61.92
2022-10-19T11:01:27.247Z,61.72
2022-10-19T11:04:11.477Z,62.90
2022-10-19T11:06:47.641Z,61.66
2022-10-19T11:09:34.246Z,61.67
2022-10-19T11:12:09.243Z,60.88
2022-10-19T11:14:49.765Z,61.45
2022-10-19T11:17:28.675Z,60.58
2022-10-19T11:19:56.841Z,60.67
2022-10-19T11:22:37.056Z,60.89
2022-10-19T11:25:25.080Z,61.63
2022-10-19T11:28:36.311Z,62.03
2022-10-19T11:31:17.188Z,62.53
2022-10-19T11:33:55.285Z,62.22
2022-10-19T11:36:35.442Z,60.68
2022-10-19T11:39:21.839Z,59.92
2022-10-19T11:42:25.382Z,60.18
2022-10-19T11:45:01.989Z,61.06
2022-10-19T11:47:40.158Z,61.18
2022-10-19T11:50:32.022Z,60.18
2022-10-19T11:53:05.953Z,60.48
2022-10-19T11:55:51.638Z,60.96
2022-10-19T11:58:55.142Z,61.92
2022-10-19T12:01:29.047Z,62.80
2022-10-19T12:04:21.798Z,63.06
2022-10-19T12:07:24.827Z,63.08
2022-10-19T12:10:17.122Z,62.64
2022-10-19T12:12:49.699Z,61.97
2022-10-19T12:15:28.637Z,61.86
2022-10-19T12:18:03.175Z,60.85
2022-10-19T12:20:54.564Z,61.62
2022-10-19T12:23:36.510Z,61.48
2022-10-19T12:26:07.749Z,60.46
2022-10-19T12:28:38.926Z,60.11
2022-10-19T12:31:08.455Z,59.98
2022-10-19T12:33:41.510Z,59.09
2022-10-19T12:36:09.461Z,58.42
2022-10-19T12:38:59.710Z,58.81
2022-10-19T12:41:33.995Z,58.11
2022-10-19T12:44:21.683Z,57.70
2022-10-19T12:46:56.438Z,58.76
2022-10-19T12:49:26.808Z,58.83
2022-10-19T12:51:56.710Z,58.05
2022-10-19T12:54:30.292Z,56.89
2022-10-19T12:57:01.148Z,56.86
2022-10-19T12:59:32.159Z,56.30
2022-10-19T13:02:02.329Z,56.28
2022-10-19T13:04:32.721Z,55.82
2022-10-19T13:07:08.398Z,54.70
2022-10-19T13:09:48.365Z,55.79
2022-10-19T13:12:19.993Z,55.61
2022-10-19T13:14:52.515Z,55.04
2022-10-19T13:17:44.201Z,55.08
2022-10-19T13:20:15.059Z,54.54
2022-10-19T13:23:06.051Z,54.46
2022-10-19T13:25:41.798Z,54.94
2022-10-19T13:28:10.123Z,55.99
2022-10-19T13:30:44.159Z,56.28
2022-10-19T13:33:31.620Z,57.07
2022-10-19T13:35:59.747Z,57.83
2022-10-19T13:38:49.474Z,57.95
2022-10-19T13:41:38.669Z,58.02
2022-10-19T13:44:27.050Z,57.91
2022-10-19T13:47:33.964Z,57.62
2022-10-19T13:50:05.396Z,57.97
2022-10-19T13:52:52.485Z,58.52
2022-10-19T13:55:47.164Z,61.47
2022-10-19T13:58:24.515Z,62.94
2022-10-19T14:01:12.628Z,64.28
2022-10-19T14:04:20.927Z,65.06
2022-10-19T14:07:00.263Z,65.37
2022-10-19T14:10:03.564Z,65.79
2022-10-19T14:12:36.830Z,65.95
2022-10-19T14:15:23.068Z,66.12
2022-10-19T14:17:51.224Z,65.58
2022-10-19T14:20:36.706Z,64.59
2022-10-19T14:23:25.149Z,64.52
2022-10-19T14:26:02.047Z,64.25
2022-10-19T14:28:31.089Z,64.36
2022-10-19T14:31:02.055Z,64.56
2022-10-19T14:33:38.114Z,63.97
2022-10-19T14:36:08.334Z,63.01
2022-10-19T14:38:39.748Z,62.13
2022-10-19T14:41:19.638Z,61.19
2022-10-19T14:43:50.388Z,60.48
2022-10-19T14:46:18.555Z,59.99
2022-10-19T14:48:50.892Z,59.70
2022-10-19T14:51:30.551Z,59.57
2022-10-19T14:54:05.994Z,59.97
2022-10-19T14:57:07.138Z,59.99
2022-10-19T14:59:46.622Z,59.71
2022-10-19T15:02:19.151Z,60.30
2022-10-19T15:04:47.817Z,60.09
2022-10-19T15:07:26.963Z,59.97
2022-10-19T15:09:58.314Z,59.73
2022-10-19T15:12:34.201Z,59.90
2022-10-19T15:15:08.051Z,60.00
2022-10-19T15:17:38.227Z,60.12
2022-10-19T15:20:49.026Z,60.61
2022-10-19T15:23:45.590Z,61.19
2022-10-19T15:26:20.553Z,61.25
2022-10-19T15:28:49.424Z,61.21
2022-10-19T15:31:35.385Z,60.86
2022-10-19T15:34:05.640Z,61.31
2022-10-19T15:36:33.740Z,61.50
2022-10-19T15:39:18.424Z,61.52
2022-10-19T15:41:53.520Z,62.19
2022-10-19T15:44:42.523Z,61.97
2022-10-19T15:47:29.069Z,61.97
2022-10-19T15:49:58.621Z,62.20
2022-10-19T15:52:29.409Z,62.04
2022-10-19T15:54:59.535Z,61.84
2022-10-19T15:57:34.118Z,61.36
2022-10-19T16:00:15.221Z,61.51
2022-10-19T16:02:43.515Z,61.46
2022-10-19T16:05:11.868Z,61.07
2022-10-19T16:07:41.577Z,60.89
2022-10-19T16:10:17.963Z,60.48
2022-10-19T16:12:45.919Z,59.88
2022-10-19T16:15:22.494Z,59.47
2022-10-19T16:17:53.650Z,59.58
2022-10-19T16:20:22.627Z,59.55
2022-10-19T16:22:50.796Z,59.93
2022-10-19T16:25:19.194Z,59.78
2022-10-19T16:27:47.277Z,59.26
2022-10-19T16:30:15.317Z,58.53
2022-10-19T16:32:43.398Z,58.28
2022-10-19T16:35:11.845Z,57.28
2022-10-19T16:37:39.937Z,56.91
2022-10-19T16:40:08.847Z,56.82
2022-10-19T16:42:37.272Z,56.91
2022-10-19T16:45:06.504Z,56.36
2022-10-19T16:47:34.467Z,56.44
2022-10-19T16:50:04.690Z,56.30
2022-10-19T16:52:33.714Z,56.62
2022-10-19T16:55:02.778Z,57.24
2022-10-19T16:57:30.882Z,57.30
2022-10-19T16:59:58.963Z,57.29
2022-10-19T17:02:27.312Z,57.58
2022-10-19T17:04:55.266Z,57.99
2022-10-19T17:07:23.662Z,58.35
2022-10-19T17:09:54.685Z,58.94
2022-10-19T17:12:23.059Z,59.15
2022-10-19T17:14:51.543Z,58.71
2022-10-19T17:17:19.636Z,58.71
2022-10-19T17:19:48.868Z,59.01
2022-10-19T17:22:17.050Z,59.26
2022-10-19T17:24:46.997Z,59.89
2022-10-19T17:27:15.094Z,59.61
2022-10-19T17:29:43.343Z,59.91
2022-10-19T17:32:11.222Z,59.76
2022-10-19T17:34:39.267Z,59.58
2022-10-19T17:37:07.355Z,58.38
2022-10-19T17:39:35.373Z,57.92
2022-10-19T17:42:05.100Z,57.88
2022-10-19T17:44:33.037Z,57.58
2022-10-19T17:47:01.396Z,57.86
2022-10-19T17:49:30.105Z,57.46
2022-10-19T17:51:58.653Z,57.35
2022-10-19T17:54:27.094Z,58.43
2022-10-19T17:56:55.605Z,58.61
2022-10-19T17:59:34.858Z,58.74
2022-10-19T18:02:06.505Z,58.37
2022-10-19T18:07:04.200Z,58.15
2022-10-19T18:09:32.133Z,58.10
2022-10-19T18:12:04.659Z,58.16
2022-10-19T18:14:35.499Z,58.10
2022-10-19T18:17:03.527Z,57.48
2022-10-19T18:19:32.288Z,57.70
2022-10-19T18:22:00.307Z,58.08
2022-10-19T18:24:28.717Z,58.35
2022-10-19T18:26:56.814Z,58.45
2022-10-19T18:29:26.612Z,58.67
2022-10-19T18:31:55.159Z,57.92
2022-10-19T18:34:25.586Z,57.55
2022-10-19T18:36:54.571Z,57.40
2022-10-19T18:39:22.800Z,56.92
2022-10-19T18:41:54.808Z,56.62
2022-10-19T18:44:27.122Z,56.78
2022-10-19T18:46:57.051Z,57.32
2022-10-19T18:49:25.799Z,57.26
2022-10-19T18:51:55.725Z,57.62
2022-10-19T18:54:28.112Z,57.97
2022-10-19T18:56:56.335Z,58.07
2022-10-19T18:59:24.620Z,58.83
2022-10-19T19:01:52.687Z,59.33
2022-10-19T19:04:20.813Z,60.28
2022-10-19T19:06:48.877Z,60.62
2022-10-19T19:09:19.005Z,61.03
2022-10-19T19:11:47.272Z,61.56
2022-10-19T19:14:18.109Z,62.06
2022-10-19T19:16:46.692Z,62.03
2022-10-19T19:19:16.811Z,62.54
2022-10-19T19:21:45.904Z,62.69
2022-10-19T19:24:17.046Z,63.12
2022-10-19T19:26:51.546Z,63.88
2022-10-19T19:29:21.073Z,64.15
2022-10-19T19:31:49.244Z,64.19
2022-10-19T19:34:17.624Z,64.13
2022-10-19T19:36:49.102Z,64.63
2022-10-19T19:39:20.844Z,64.65
2022-10-19T19:41:49.731Z,64.85
2022-10-19T19:44:18.309Z,65.43
2022-10-19T19:46:46.782Z,65.75
2022-10-19T19:49:14.852Z,65.93
2022-10-19T19:51:42.923Z,65.36
2022-10-19T19:54:11.724Z,65.59
2022-10-19T19:56:42.250Z,66.17
2022-10-19T19:59:12.798Z,66.62
2022-10-19T20:01:41.357Z,66.14
2022-10-19T20:04:10.099Z,66.54
2022-10-19T20:06:40.970Z,66.78
2022-10-19T20:09:10.822Z,66.59
2022-10-19T20:11:42.322Z,66.37
2022-10-19T20:14:12.164Z,66.34
2022-10-19T20:16:40.830Z,66.45
2022-10-19T20:19:11.821Z,67.03
2022-10-19T20:21:41.053Z,67.62
2022-10-19T20:24:09.208Z,68.18
2022-10-19T20:26:37.972Z,68.60
2022-10-19T20:29:06.477Z,68.93
2022-10-19T20:31:39.743Z,69.30
2022-10-19T20:34:11.058Z,69.57
2022-10-19T20:36:39.219Z,69.34
2022-10-19T20:39:07.254Z,69.44
2022-10-19T20:41:35.871Z,69.67
2022-10-19T20:44:03.853Z,69.68
2022-10-19T20:46:32.184Z,69.82
2022-10-19T20:49:02.130Z,69.85
2022-10-19T20:51:36.747Z,70.21
2022-10-19T20:54:07.895Z,70.41
2022-10-19T20:56:38.035Z,70.49
2022-10-19T20:59:15.304Z,70.91
2022-10-19T21:01:44.471Z,71.33
2022-10-19T21:04:14.402Z,71.89
2022-10-19T21:06:48.611Z,72.11
2022-10-19T21:09:20.180Z,72.31
2022-10-19T21:11:50.447Z,72.80
2022-10-19T21:14:25.237Z,72.93
2022-10-19T21:17:00.547Z,73.10
2022-10-19T21:19:29.744Z,73.39
2022-10-19T21:22:03.269Z,73.76
2022-10-19T21:24:34.721Z,73.84
2022-10-19T21:27:05.463Z,73.84
2022-10-19T21:29:34.291Z,73.90
2022-10-19T21:32:03.124Z,74.27
2022-10-19T21:34:32.332Z,74.32
2022-10-19T21:37:00.596Z,74.36
2022-10-19T21:39:29.077Z,74.41
2022-10-19T21:41:58.171Z,74.56
2022-10-19T21:44:26.356Z,74.63
2022-10-19T21:46:54.313Z,74.78
2022-10-19T21:49:22.204Z,74.83
2022-10-19T21:51:55.330Z,74.85
2022-10-19T21:54:25.204Z,75.09
2022-10-19T21:56:55.887Z,75.02
2022-10-19T21:59:25.008Z,74.99
2022-10-19T22:01:55.349Z,75.16
2022-10-19T22:04:24.111Z,75.23
2022-10-19T22:06:52.298Z,75.22
2022-10-19T22:09:23.338Z,75.21
2022-10-19T22:11:51.613Z,75.39
2022-10-19T22:14:19.784Z,75.84
2022-10-19T22:16:47.852Z,75.90
2022-10-19T22:19:16.023Z,75.96
2022-10-19T22:21:43.991Z,75.97
2022-10-19T22:24:14.935Z,76.07
2022-10-19T22:26:46.667Z,76.23
2022-10-19T22:29:15.129Z,75.63
2022-10-19T22:31:43.371Z,75.29
2022-10-19T22:34:15.022Z,74.96
2022-10-19T22:36:44.065Z,74.95
2022-10-19T22:39:12.669Z,75.15
2022-10-19T22:41:40.739Z,75.31
2022-10-19T22:44:08.625Z,75.52
2022-10-19T22:46:36.577Z,75.69
2022-10-19T22:49:04.591Z,75.82
2022-10-19T22:51:33.020Z,76.26
2022-10-19T22:54:01.241Z,76.31
2022-10-19T22:56:29.779Z,76.31
2022-10-19T22:59:02.353Z,76.49
2022-10-19T23:01:30.429Z,76.50
2022-10-19T23:03:58.488Z,76.08
2022-10-19T23:06:26.791Z,75.92
2022-10-19T23:08:54.830Z,76.08
2022-10-19T23:11:23.285Z,76.05
2022-10-19T23:13:51.286Z,75.63
2022-10-19T23:16:19.288Z,75.98
2022-10-19T23:18:47.328Z,75.98
2022-10-19T23:21:16.373Z,75.88
2022-10-19T23:23:44.514Z,75.92
2022-10-19T23:26:15.532Z,76.04
2022-10-19T23:28:44.976Z,76.25
2022-10-19T23:31:15.974Z,76.33
2022-10-19T23:33:44.697Z,76.31
2022-10-19T23:36:14.682Z,76.67
2022-10-19T23:38:44.900Z,76.60
2022-10-19T23:41:13.468Z,76.39
2022-10-19T23:43:41.917Z,76.48
2022-10-19T23:46:10.255Z,76.60
2022-10-19T23:48:38.688Z,76.51
2022-10-19T23:51:09.962Z,76.47
2022-10-19T23:53:41.423Z,76.53
2022-10-19T23:56:16.002Z,76.63
2022-10-19T23:58:44.664Z,76.69
